createdAt,value
2018-03-18T00:01:45.846Z,12.00
2018-03-18T00:04:12.611Z,10.17
2018-03-18T00:06:39.454Z,10.90
2018-03-18T00:09:06.177Z,9.87
2018-03-18T00:11:32.902Z,9.80
2018-03-18T00:13:59.655Z,9.30
2018-03-18T00:16:26.458Z,9.50
2018-03-18T00:18:53.188Z,9.70
2018-03-18T00:21:19.921Z,10.23
2018-03-18T00:23:46.651Z,9.13
2018-03-18T00:26:13.374Z,9.70
2018-03-18T00:28:40.141Z,9.27
2018-03-18T00:31:06.869Z,11.13
2018-03-18T00:33:33.617Z,10.87
2018-03-18T00:36:00.348Z,12.90
2018-03-18T00:38:27.087Z,11.00
2018-03-18T00:40:53.814Z,14.60
2018-03-18T00:43:20.538Z,12.97
2018-03-18T00:45:47.275Z,10.40
2018-03-18T00:48:14.014Z,13.07
2018-03-18T00:50:40.757Z,11.00
2018-03-18T00:53:07.477Z,11.03
2018-03-18T00:55:34.212Z,12.93
2018-03-18T00:58:00.940Z,13.97
2018-03-18T01:00:27.667Z,14.67
2018-03-18T01:02:54.414Z,12.43
2018-03-18T01:05:21.155Z,13.80
2018-03-18T01:07:47.903Z,10.77
2018-03-18T01:10:14.642Z,13.17
2018-03-18T01:12:41.453Z,13.43
2018-03-18T01:15:08.175Z,12.40
2018-03-18T01:17:34.912Z,13.40
2018-03-18T01:20:01.655Z,13.63
2018-03-18T01:22:28.402Z,15.03
2018-03-18T01:24:55.133Z,14.90
2018-03-18T01:27:21.858Z,16.50
2018-03-18T01:29:48.595Z,16.00
2018-03-18T01:32:15.323Z,13.20
2018-03-18T01:34:42.056Z,14.47
2018-03-18T01:37:08.803Z,13.03
2018-03-18T01:39:35.560Z,12.73
2018-03-18T01:42:02.296Z,14.30
2018-03-18T01:44:29.030Z,12.00
2018-03-18T01:46:55.761Z,13.23
2018-03-18T01:49:22.501Z,11.47
2018-03-18T01:51:49.247Z,12.83
2018-03-18T01:54:15.962Z,13.60
2018-03-18T01:56:42.684Z,11.03
2018-03-18T01:59:09.412Z,12.37
2018-03-18T02:01:36.144Z,15.33
2018-03-18T02:04:02.921Z,12.67
2018-03-18T02:06:29.716Z,11.63
2018-03-18T02:08:56.437Z,14.63
2018-03-18T02:11:23.238Z,9.67
2018-03-18T02:13:50.775Z,11.07
2018-03-18T02:16:17.507Z,11.20
2018-03-18T02:18:44.260Z,11.77
2018-03-18T02:21:10.991Z,10.80
2018-03-18T02:23:37.730Z,13.43
2018-03-18T02:26:04.475Z,12.33
2018-03-18T02:28:31.226Z,12.20
2018-03-18T02:30:57.955Z,10.50
2018-03-18T02:33:24.712Z,14.87
2018-03-18T02:35:51.435Z,12.07
2018-03-18T02:38:18.188Z,11.47
2018-03-18T02:40:44.921Z,12.77
2018-03-18T02:43:11.640Z,11.70
2018-03-18T02:45:38.375Z,10.87
2018-03-18T02:48:05.113Z,12.33
2018-03-18T02:50:31.858Z,10.80
2018-03-18T02:52:58.598Z,11.20
2018-03-18T02:55:25.332Z,12.73
2018-03-18T02:57:52.066Z,11.50
2018-03-18T03:00:18.816Z,9.13
2018-03-18T03:02:45.534Z,9.50
2018-03-18T03:05:12.255Z,8.70
2018-03-18T03:07:38.995Z,10.70
2018-03-18T03:10:05.714Z,9.07
2018-03-18T03:12:32.429Z,10.73
2018-03-18T03:14:59.189Z,11.60
2018-03-18T03:17:25.915Z,13.53
2018-03-18T03:19:52.644Z,12.40
2018-03-18T03:22:19.381Z,13.97
2018-03-18T03:24:46.139Z,13.20
2018-03-18T03:27:12.886Z,14.33
2018-03-18T03:29:39.623Z,14.00
2018-03-18T03:32:06.373Z,13.40
2018-03-18T03:34:33.125Z,12.60
2018-03-18T03:36:59.855Z,12.40
2018-03-18T03:39:26.593Z,14.70
2018-03-18T03:41:53.347Z,13.20
2018-03-18T03:44:20.062Z,13.40
2018-03-18T03:46:46.792Z,13.40
2018-03-18T03:49:13.549Z,13.17
2018-03-18T03:51:40.284Z,13.83
2018-03-18T03:54:07.023Z,15.50
2018-03-18T03:56:34.427Z,16.53
2018-03-18T03:59:01.146Z,16.57
2018-03-18T04:01:27.877Z,15.97
2018-03-18T04:03:54.619Z,14.93
2018-03-18T04:06:21.409Z,16.87
2018-03-18T04:08:48.132Z,18.43
2018-03-18T04:11:14.872Z,18.70
2018-03-18T04:13:41.591Z,17.93
2018-03-18T04:16:08.350Z,21.07
2018-03-18T04:18:35.077Z,18.27
2018-03-18T04:21:01.806Z,20.53
2018-03-18T04:23:28.561Z,19.97
2018-03-18T04:25:55.294Z,18.43
2018-03-18T04:28:22.025Z,20.23
2018-03-18T04:30:48.764Z,21.20
2018-03-18T04:33:15.502Z,20.80
2018-03-18T04:35:42.219Z,16.73
2018-03-18T04:38:08.957Z,18.40
2018-03-18T04:40:35.673Z,20.60
2018-03-18T04:43:03.335Z,20.97
2018-03-18T04:45:30.082Z,20.17
2018-03-18T04:47:56.814Z,17.17
2018-03-18T04:50:23.546Z,18.07
2018-03-18T04:52:50.284Z,22.50
2018-03-18T04:55:17.035Z,18.37
2018-03-18T04:57:43.770Z,24.53
2018-03-18T05:00:10.511Z,22.40
2018-03-18T05:02:37.316Z,22.23
2018-03-18T05:05:04.146Z,21.43
2018-03-18T05:07:30.896Z,20.73
2018-03-18T05:09:57.633Z,21.10
2018-03-18T05:12:24.374Z,21.23
2018-03-18T05:14:51.101Z,28.03
2018-03-18T05:17:17.814Z,24.50
2018-03-18T05:19:44.559Z,20.37
2018-03-18T05:22:11.291Z,21.90
2018-03-18T05:24:38.030Z,21.90
2018-03-18T05:27:04.756Z,24.27
2018-03-18T05:29:31.520Z,23.70
2018-03-18T05:31:58.284Z,20.80
2018-03-18T05:34:25.043Z,22.60
2018-03-18T05:36:51.791Z,21.60
2018-03-18T05:39:18.576Z,19.90
2018-03-18T05:41:45.303Z,22.90
2018-03-18T05:44:12.069Z,20.93
2018-03-18T05:46:38.861Z,21.70
2018-03-18T05:49:05.601Z,18.60
2018-03-18T05:51:32.350Z,22.70
2018-03-18T05:53:59.080Z,21.90
2018-03-18T05:56:25.822Z,23.50
2018-03-18T05:58:52.561Z,24.13
2018-03-18T06:01:19.301Z,25.00
2018-03-18T06:03:46.043Z,23.00
2018-03-18T06:06:12.782Z,24.50
2018-03-18T06:08:39.510Z,24.20
2018-03-18T06:11:06.252Z,23.30
2018-03-18T06:13:32.982Z,26.10
2018-03-18T06:15:59.726Z,22.90
2018-03-18T06:18:26.464Z,24.00
2018-03-18T06:20:53.202Z,23.37
2018-03-18T06:23:19.931Z,22.40
2018-03-18T06:25:46.649Z,24.90
2018-03-18T06:28:13.380Z,22.33
2018-03-18T06:30:40.117Z,23.03
2018-03-18T06:33:06.846Z,23.13
2018-03-18T06:35:33.638Z,24.07
2018-03-18T06:38:00.364Z,21.40
2018-03-18T06:40:27.096Z,22.40
2018-03-18T06:42:53.850Z,25.27
2018-03-18T06:45:20.590Z,21.90
2018-03-18T06:47:47.357Z,24.33
2018-03-18T06:50:14.094Z,23.97
2018-03-18T06:52:40.836Z,24.53
2018-03-18T06:55:07.574Z,24.87
2018-03-18T06:57:34.309Z,22.93
2018-03-18T07:00:01.042Z,22.90
2018-03-18T07:02:27.767Z,23.30
2018-03-18T07:04:54.492Z,22.50
2018-03-18T07:07:21.279Z,23.13
2018-03-18T07:09:48.020Z,23.10
2018-03-18T07:12:14.767Z,19.33
2018-03-18T07:14:41.479Z,22.30
2018-03-18T07:17:08.206Z,22.50
2018-03-18T07:19:34.939Z,21.63
2018-03-18T07:22:01.690Z,21.87
2018-03-18T07:24:28.430Z,21.67
2018-03-18T07:26:55.143Z,21.83
2018-03-18T07:29:21.869Z,19.80
2018-03-18T07:31:48.587Z,20.60
2018-03-18T07:34:15.310Z,19.83
2018-03-18T07:36:42.067Z,21.40
2018-03-18T07:39:08.801Z,20.17
2018-03-18T07:41:35.578Z,21.13
2018-03-18T07:44:02.317Z,20.00
2018-03-18T07:46:29.035Z,22.00
2018-03-18T07:48:55.769Z,18.50
2018-03-18T07:51:22.517Z,20.42
2018-03-18T07:53:49.262Z,19.00
2018-03-18T07:56:16.063Z,17.33
2018-03-18T07:58:42.800Z,16.27
2018-03-18T08:01:09.538Z,18.60
2018-03-18T08:03:36.265Z,20.20
2018-03-18T08:06:03.011Z,19.45
2018-03-18T08:08:29.738Z,16.80
2018-03-18T08:10:56.495Z,18.43
2018-03-18T08:13:23.234Z,19.15
2018-03-18T08:15:49.958Z,18.03
2018-03-18T08:18:16.700Z,22.55
2018-03-18T08:20:43.490Z,23.80
2018-03-18T08:23:10.234Z,19.40
2018-03-18T08:25:36.975Z,20.62
2018-03-18T08:28:03.698Z,17.40
2018-03-18T08:30:30.456Z,19.75
2018-03-18T08:32:57.182Z,22.93
2018-03-18T08:35:23.946Z,19.40
2018-03-18T08:37:50.860Z,21.02
2018-03-18T08:40:17.888Z,18.60
2018-03-18T08:42:44.640Z,20.77
2018-03-18T08:45:14.146Z,20.92
2018-03-18T08:47:41.147Z,20.03
2018-03-18T08:50:07.876Z,23.08
2018-03-18T08:52:34.646Z,17.00
2018-03-18T08:55:01.378Z,18.03
2018-03-18T08:57:28.135Z,16.98
2018-03-18T08:59:54.975Z,19.97
2018-03-18T09:02:21.693Z,19.53
2018-03-18T09:04:48.434Z,19.75
2018-03-18T09:07:15.174Z,18.30
2018-03-18T09:09:41.915Z,17.43
2018-03-18T09:12:08.664Z,20.20
2018-03-18T09:14:35.411Z,18.80
2018-03-18T09:17:02.144Z,19.10
2018-03-18T09:19:28.870Z,21.83
2018-03-18T09:21:55.628Z,17.98
2018-03-18T09:24:22.398Z,20.52
2018-03-18T09:26:49.155Z,20.52
2018-03-18T09:29:15.885Z,19.40
2018-03-18T09:31:42.621Z,23.95
2018-03-18T09:34:09.398Z,21.83
2018-03-18T09:36:36.141Z,19.50
2018-03-18T09:39:02.921Z,19.90
2018-03-18T09:41:29.666Z,19.57
2018-03-18T09:43:56.397Z,21.57
2018-03-18T09:46:23.158Z,18.20
2018-03-18T09:48:49.957Z,20.33
2018-03-18T09:51:16.720Z,20.10
2018-03-18T09:53:43.543Z,21.53
2018-03-18T09:56:10.353Z,20.80
2018-03-18T09:58:37.092Z,20.13
2018-03-18T10:01:03.838Z,20.80
2018-03-18T10:03:30.572Z,20.70
2018-03-18T10:05:57.307Z,21.20
2018-03-18T10:08:24.028Z,21.97
2018-03-18T10:10:50.786Z,19.77
2018-03-18T10:13:17.526Z,23.03
2018-03-18T10:15:44.419Z,23.47
2018-03-18T10:18:11.088Z,23.67
2018-03-18T10:20:37.864Z,22.90
2018-03-18T10:23:04.606Z,20.40
2018-03-18T10:25:49.088Z,21.90
2018-03-18T10:28:33.590Z,23.63
2018-03-18T10:31:00.339Z,24.40
2018-03-18T10:33:27.115Z,24.00
2018-03-18T10:35:53.869Z,25.27
2018-03-18T10:38:20.592Z,28.67
2018-03-18T10:40:47.347Z,26.73
2018-03-18T10:43:14.079Z,23.63
2018-03-18T10:45:40.816Z,26.00
2018-03-18T10:48:07.585Z,24.60
2018-03-18T10:50:34.328Z,23.77
2018-03-18T10:53:01.084Z,23.60
2018-03-18T10:55:27.829Z,25.43
2018-03-18T10:57:54.598Z,28.00
2018-03-18T11:00:21.381Z,23.37
2018-03-18T11:02:50.014Z,24.13
2018-03-18T11:05:16.746Z,23.70
2018-03-18T11:07:43.477Z,23.67
2018-03-18T11:10:10.219Z,24.93
2018-03-18T11:12:36.968Z,27.33
2018-03-18T11:15:03.743Z,26.30
2018-03-18T11:17:30.484Z,26.67
2018-03-18T11:19:57.234Z,25.33
2018-03-18T11:22:24.028Z,29.83
2018-03-18T11:24:50.778Z,24.77
2018-03-18T11:27:17.522Z,26.73
2018-03-18T11:29:44.249Z,30.10
2018-03-18T11:32:10.990Z,25.30
2018-03-18T11:34:37.744Z,23.43
2018-03-18T11:37:04.509Z,26.10
2018-03-18T11:39:31.237Z,28.03
2018-03-18T11:41:57.981Z,27.40
2018-03-18T11:44:24.763Z,25.17
2018-03-18T11:46:51.529Z,24.37
2018-03-18T11:49:18.281Z,28.20
2018-03-18T11:51:45.029Z,24.07
2018-03-18T11:54:11.777Z,26.33
2018-03-18T11:56:38.502Z,27.40
2018-03-18T11:59:05.237Z,25.97
2018-03-18T12:01:32.025Z,26.10
2018-03-18T12:03:58.835Z,27.93
2018-03-18T12:06:25.636Z,27.07
2018-03-18T12:08:58.230Z,26.30
2018-03-18T12:11:25.017Z,31.90
2018-03-18T12:13:51.778Z,27.00
2018-03-18T12:16:18.516Z,23.87
2018-03-18T12:18:45.260Z,24.07
2018-03-18T12:21:12.009Z,23.47
2018-03-18T12:23:38.808Z,27.60
2018-03-18T12:26:05.579Z,21.60
2018-03-18T12:28:32.332Z,27.40
2018-03-18T12:30:59.088Z,23.83
2018-03-18T12:33:25.837Z,31.00
2018-03-18T12:35:52.602Z,24.27
2018-03-18T12:38:19.388Z,29.30
2018-03-18T12:40:50.284Z,27.00
2018-03-18T12:43:22.937Z,25.67
2018-03-18T12:45:49.722Z,27.27
2018-03-18T12:48:16.528Z,27.77
2018-03-18T12:50:43.290Z,25.42
2018-03-18T12:53:10.031Z,28.70
2018-03-18T12:55:36.818Z,26.97
2018-03-18T12:58:03.590Z,24.63
2018-03-18T13:00:30.368Z,28.05
2018-03-18T13:02:57.111Z,31.02
2018-03-18T13:05:23.988Z,27.13
2018-03-18T13:07:50.770Z,26.97
2018-03-18T13:10:17.794Z,25.80
2018-03-18T13:12:44.588Z,27.00
2018-03-18T13:15:11.324Z,34.47
2018-03-18T13:17:38.150Z,22.87
2018-03-18T13:20:04.968Z,27.90
2018-03-18T13:22:31.744Z,22.47
2018-03-18T13:24:58.507Z,26.60
2018-03-18T13:27:25.290Z,25.75
2018-03-18T13:29:52.071Z,31.93
2018-03-18T13:32:18.812Z,30.67
2018-03-18T13:34:45.584Z,28.13
2018-03-18T13:37:12.362Z,26.03
2018-03-18T13:39:39.108Z,25.70
2018-03-18T13:42:05.910Z,28.80
2018-03-18T13:44:32.637Z,27.70
2018-03-18T13:46:59.370Z,27.57
2018-03-18T13:49:26.128Z,31.07
2018-03-18T13:51:52.868Z,28.80
2018-03-18T13:54:19.616Z,33.70
2018-03-18T13:56:46.353Z,28.30
2018-03-18T13:59:13.123Z,27.70
2018-03-18T14:01:39.984Z,28.30
2018-03-18T14:04:06.736Z,28.70
2018-03-18T14:06:33.478Z,25.83
2018-03-18T14:09:00.220Z,24.60
2018-03-18T14:11:26.985Z,25.00
2018-03-18T14:13:53.708Z,27.60
2018-03-18T14:16:20.472Z,27.00
2018-03-18T14:18:47.232Z,27.27
2018-03-18T14:21:13.987Z,29.60
2018-03-18T14:23:40.755Z,26.90
2018-03-18T14:26:07.512Z,24.03
2018-03-18T14:28:34.284Z,31.33
2018-03-18T14:31:01.068Z,30.33
2018-03-18T14:33:27.825Z,27.03
2018-03-18T14:35:54.591Z,30.10
2018-03-18T14:38:21.342Z,32.47
2018-03-18T14:40:48.501Z,28.57
2018-03-18T14:43:15.249Z,26.23
2018-03-18T14:45:42.092Z,30.47
2018-03-18T14:48:08.841Z,27.70
2018-03-18T14:50:35.586Z,29.65
2018-03-18T14:53:02.352Z,31.90
2018-03-18T14:55:29.098Z,28.05
2018-03-18T14:57:55.872Z,27.42
2018-03-18T15:00:22.609Z,33.50
2018-03-18T15:02:49.360Z,31.57
2018-03-18T15:05:16.090Z,29.17
2018-03-18T15:07:42.814Z,31.30
2018-03-18T15:10:09.556Z,41.53
2018-03-18T15:12:36.297Z,25.70
2018-03-18T15:15:03.087Z,32.47
2018-03-18T15:17:29.821Z,29.52
2018-03-18T15:19:56.572Z,24.83
2018-03-18T15:22:23.311Z,30.97
2018-03-18T15:24:50.077Z,33.07
2018-03-18T15:27:16.836Z,31.13
2018-03-18T15:29:43.595Z,30.70
2018-03-18T15:32:10.339Z,30.43
2018-03-18T15:34:37.125Z,28.87
2018-03-18T15:37:03.888Z,36.70
2018-03-18T15:39:30.622Z,26.03
2018-03-18T15:41:57.369Z,28.35
2018-03-18T15:44:24.114Z,28.62
2018-03-18T15:46:50.861Z,32.23
2018-03-18T15:49:17.599Z,29.67
2018-03-18T15:51:44.361Z,30.60
2018-03-18T15:54:11.141Z,28.50
2018-03-18T15:56:37.908Z,32.63
2018-03-18T15:59:04.661Z,24.80
2018-03-18T16:01:31.455Z,32.45
2018-03-18T16:03:58.205Z,31.98
2018-03-18T16:06:24.957Z,30.27
2018-03-18T16:08:51.744Z,25.77
2018-03-18T16:11:18.498Z,27.40
2018-03-18T16:13:45.226Z,27.90
2018-03-18T16:16:12.009Z,27.85
2018-03-18T16:18:38.779Z,27.90
2018-03-18T16:21:05.540Z,24.10
2018-03-18T16:23:32.310Z,29.12
2018-03-18T16:25:59.051Z,25.60
2018-03-18T16:28:25.835Z,26.37
2018-03-18T16:31:17.153Z,27.97
2018-03-18T16:33:43.908Z,33.40
2018-03-18T16:36:10.660Z,30.62
2018-03-18T16:38:37.420Z,30.48
2018-03-18T16:41:04.168Z,30.67
2018-03-18T16:43:30.946Z,28.95
2018-03-18T16:45:57.699Z,24.92
2018-03-18T16:48:24.457Z,23.70
2018-03-18T16:50:51.226Z,22.73
2018-03-18T16:53:17.968Z,25.70
2018-03-18T16:55:44.773Z,26.80
2018-03-18T16:58:11.500Z,28.47
2018-03-18T17:00:38.246Z,32.90
2018-03-18T17:03:05.021Z,33.58
2018-03-18T17:05:31.775Z,30.30
2018-03-18T17:07:58.515Z,32.30
2018-03-18T17:10:25.257Z,31.08
2018-03-18T17:12:52.002Z,34.67
2018-03-18T17:15:18.770Z,29.20
2018-03-18T17:17:45.554Z,29.30
2018-03-18T17:20:12.326Z,32.43
2018-03-18T17:22:39.128Z,31.40
2018-03-18T17:25:05.908Z,34.70
2018-03-18T17:27:32.661Z,30.58
2018-03-18T17:29:59.425Z,27.57
2018-03-18T17:32:26.175Z,36.63
2018-03-18T17:34:52.949Z,31.10
2018-03-18T17:37:19.715Z,36.72
2018-03-18T17:39:46.483Z,32.47
2018-03-18T17:42:13.242Z,29.10
2018-03-18T17:44:45.977Z,30.48
2018-03-18T17:47:18.700Z,29.63
2018-03-18T17:49:51.293Z,30.83
2018-03-18T17:52:23.793Z,31.73
2018-03-18T17:54:56.333Z,32.95
2018-03-18T17:57:23.133Z,37.27
2018-03-18T17:59:49.902Z,38.03
2018-03-18T18:02:16.646Z,31.50
2018-03-18T18:04:43.390Z,35.75
2018-03-18T18:07:10.126Z,33.90
2018-03-18T18:09:36.864Z,40.10
2018-03-18T18:12:03.630Z,35.27
2018-03-18T18:14:30.367Z,37.77
2018-03-18T18:16:57.123Z,39.73
2018-03-18T18:19:23.858Z,36.17
2018-03-18T18:21:50.598Z,32.50
2018-03-18T18:24:17.352Z,32.53
2018-03-18T18:26:44.118Z,34.20
2018-03-18T18:29:10.870Z,35.50
2018-03-18T18:31:37.603Z,34.40
2018-03-18T18:34:04.407Z,35.63
2018-03-18T18:36:31.166Z,34.40
2018-03-18T18:38:57.899Z,34.40
2018-03-18T18:41:24.693Z,36.10
2018-03-18T18:43:51.450Z,33.83
2018-03-18T18:46:18.183Z,39.80
2018-03-18T18:48:44.931Z,34.70
2018-03-18T18:51:11.733Z,34.30
2018-03-18T18:53:38.547Z,31.12
2018-03-18T18:56:05.320Z,36.55
2018-03-18T18:58:32.060Z,34.22
2018-03-18T19:00:58.810Z,34.08
2018-03-18T19:03:25.562Z,34.10
2018-03-18T19:05:52.357Z,33.70
2018-03-18T19:08:19.125Z,34.03
2018-03-18T19:10:45.864Z,30.05
2018-03-18T19:13:12.620Z,27.60
2018-03-18T19:15:39.416Z,31.48
2018-03-18T19:18:06.154Z,32.63
2018-03-18T19:20:32.937Z,28.70
2018-03-18T19:22:59.723Z,30.30
2018-03-18T19:25:26.486Z,26.25
2018-03-18T19:27:53.252Z,28.30
2018-03-18T19:30:20.069Z,27.48
2018-03-18T19:32:46.834Z,33.05
2018-03-18T19:35:13.562Z,29.20
2018-03-18T19:37:40.311Z,27.25
2018-03-18T19:40:07.078Z,26.20
2018-03-18T19:42:33.833Z,28.12
2018-03-18T19:45:00.574Z,29.95
2018-03-18T19:47:27.331Z,31.05
2018-03-18T19:49:54.112Z,27.42
2018-03-18T19:52:20.874Z,28.55
2018-03-18T19:54:47.626Z,30.77
2018-03-18T19:57:14.379Z,33.33
2018-03-18T19:59:41.158Z,29.02
2018-03-18T20:02:07.923Z,29.77
2018-03-18T20:04:34.677Z,28.17
2018-03-18T20:07:01.416Z,29.20
2018-03-18T20:09:29.016Z,25.55
2018-03-18T20:11:55.775Z,30.95
2018-03-18T20:14:22.532Z,29.55
2018-03-18T20:16:49.354Z,31.23
2018-03-18T20:19:16.112Z,27.55
2018-03-18T20:21:42.968Z,25.80
2018-03-18T20:24:09.732Z,29.08
2018-03-18T20:26:36.483Z,26.60
2018-03-18T20:29:03.282Z,26.15
2018-03-18T20:31:30.041Z,28.85
2018-03-18T20:33:56.898Z,30.25
2018-03-18T20:36:23.668Z,33.35
2018-03-18T20:38:50.454Z,28.62
2018-03-18T20:41:17.226Z,30.00
2018-03-18T20:43:44.480Z,30.98
2018-03-18T20:46:11.252Z,29.67
2018-03-18T20:48:38.084Z,28.77
2018-03-18T20:51:04.954Z,26.58
2018-03-18T20:53:31.737Z,34.13
2018-03-18T20:55:58.490Z,30.65
2018-03-18T20:58:25.276Z,30.02
2018-03-18T21:00:52.177Z,29.80
2018-03-18T21:03:18.987Z,30.05
2018-03-18T21:05:45.761Z,30.85
2018-03-18T21:08:12.531Z,35.67
2018-03-18T21:10:39.292Z,30.90
2018-03-18T21:13:06.455Z,32.83
2018-03-18T21:15:33.235Z,32.33
2018-03-18T21:18:00.009Z,29.80
2018-03-18T21:20:26.762Z,30.37
2018-03-18T21:22:54.102Z,27.87
2018-03-18T21:25:21.152Z,32.20
2018-03-18T21:27:47.950Z,34.15
2018-03-18T21:30:14.841Z,33.83
2018-03-18T21:32:41.621Z,28.58
2018-03-18T21:35:08.424Z,30.12
2018-03-18T21:37:35.211Z,33.45
2018-03-18T21:40:02.005Z,35.03
2018-03-18T21:42:28.774Z,35.78
2018-03-18T21:44:55.533Z,29.50
2018-03-18T21:47:22.290Z,28.60
2018-03-18T21:49:49.067Z,28.67
2018-03-18T21:52:15.838Z,27.98
2018-03-18T21:54:42.589Z,29.65
2018-03-18T21:57:09.340Z,30.48
2018-03-18T21:59:36.101Z,30.80
2018-03-18T22:02:02.848Z,30.40
2018-03-18T22:04:29.606Z,38.88
2018-03-18T22:06:56.378Z,36.95
2018-03-18T22:09:23.143Z,33.63
2018-03-18T22:11:49.926Z,33.22
2018-03-18T22:14:16.688Z,32.55
2018-03-18T22:16:43.447Z,29.87
2018-03-18T22:19:10.205Z,36.25
2018-03-18T22:21:36.972Z,31.23
2018-03-18T22:24:03.732Z,39.08
2018-03-18T22:26:30.487Z,27.92
2018-03-18T22:28:57.287Z,27.52
2018-03-18T22:31:24.024Z,29.90
2018-03-18T22:33:50.768Z,27.50
2018-03-18T22:36:17.520Z,34.45
2018-03-18T22:38:44.256Z,32.00
2018-03-18T22:41:11.014Z,25.95
2018-03-18T22:43:37.885Z,33.47
2018-03-18T22:46:04.728Z,32.00
2018-03-18T22:48:31.485Z,29.37
2018-03-18T22:50:58.234Z,29.00
2018-03-18T22:53:24.978Z,31.85
2018-03-18T22:55:51.728Z,31.87
2018-03-18T22:58:18.463Z,28.83
2018-03-18T23:00:45.243Z,27.27
2018-03-18T23:03:12.019Z,31.87
2018-03-18T23:05:38.754Z,29.27
2018-03-18T23:08:05.496Z,30.75
2018-03-18T23:10:32.247Z,31.40
2018-03-18T23:12:58.991Z,29.95
2018-03-18T23:15:25.721Z,32.03
2018-03-18T23:17:59.428Z,29.23
2018-03-18T23:20:26.198Z,26.27
2018-03-18T23:22:52.978Z,27.90
2018-03-18T23:25:19.727Z,28.42
2018-03-18T23:27:46.469Z,36.22
2018-03-18T23:30:13.287Z,28.80
2018-03-18T23:32:40.046Z,27.08
2018-03-18T23:35:06.800Z,30.40
2018-03-18T23:37:33.552Z,30.80
2018-03-18T23:40:00.289Z,32.20
2018-03-18T23:42:27.104Z,27.08
2018-03-18T23:44:53.831Z,32.65
2018-03-18T23:47:20.565Z,29.33
2018-03-18T23:49:47.312Z,32.42
2018-03-18T23:52:14.047Z,32.38
2018-03-18T23:54:40.826Z,27.02
2018-03-18T23:57:07.562Z,37.55
2018-03-18T23:59:34.314Z,32.08
